sensor_id;sensor_type;location;lat;lon;timestamp;P1;durP1;ratioP1;P2;durP2;ratioP2
46447;SDS011;32145;50.390;30.778;2023-10-13T00:01:26;18.80;;;8.90;;
46447;SDS011;32145;50.390;30.778;2023-10-13T00:04:22;16.70;;;8.50;;
46447;SDS011;32145;50.390;30.778;2023-10-13T00:07:18;21.27;;;8.98;;
46447;SDS011;32145;50.390;30.778;2023-10-13T00:10:14;18.70;;;8.65;;
46447;SDS011;32145;50.390;30.778;2023-10-13T00:13:11;15.38;;;8.65;;
46447;SDS011;32145;50.390;30.778;2023-10-13T00:16:07;15.68;;;9.05;;
46447;SDS011;32145;50.390;30.778;2023-10-13T00:19:05;18.85;;;8.90;;
46447;SDS011;32145;50.390;30.778;2023-10-13T00:22:01;19.33;;;10.07;;
46447;SDS011;32145;50.390;30.778;2023-10-13T00:24:58;18.60;;;10.80;;
46447;SDS011;32145;50.390;30.778;2023-10-13T00:27:54;19.60;;;11.70;;
46447;SDS011;32145;50.390;30.778;2023-10-13T00:30:49;20.50;;;11.90;;
46447;SDS011;32145;50.390;30.778;2023-10-13T00:33:43;20.35;;;12.35;;
46447;SDS011;32145;50.390;30.778;2023-10-13T00:36:41;21.23;;;12.20;;
46447;SDS011;32145;50.390;30.778;2023-10-13T00:39:37;20.25;;;11.82;;
46447;SDS011;32145;50.390;30.778;2023-10-13T00:42:34;17.95;;;11.88;;
46447;SDS011;32145;50.390;30.778;2023-10-13T00:45:28;20.40;;;12.63;;
46447;SDS011;32145;50.390;30.778;2023-10-13T00:48:25;19.88;;;12.70;;
46447;SDS011;32145;50.390;30.778;2023-10-13T00:51:22;20.48;;;12.40;;
46447;SDS011;32145;50.390;30.778;2023-10-13T00:54:18;22.13;;;12.32;;
46447;SDS011;32145;50.390;30.778;2023-10-13T00:57:13;20.30;;;11.02;;
46447;SDS011;32145;50.390;30.778;2023-10-13T01:00:09;21.25;;;12.02;;
46447;SDS011;32145;50.390;30.778;2023-10-13T01:03:06;21.23;;;11.77;;
46447;SDS011;32145;50.390;30.778;2023-10-13T01:06:02;18.00;;;11.98;;
46447;SDS011;32145;50.390;30.778;2023-10-13T01:09:00;20.48;;;11.63;;
46447;SDS011;32145;50.390;30.778;2023-10-13T01:11:59;18.27;;;11.00;;
46447;SDS011;32145;50.390;30.778;2023-10-13T01:14:55;20.60;;;12.02;;
46447;SDS011;32145;50.390;30.778;2023-10-13T01:17:50;19.98;;;12.40;;
46447;SDS011;32145;50.390;30.778;2023-10-13T01:20:44;19.40;;;12.07;;
46447;SDS011;32145;50.390;30.778;2023-10-13T01:23:40;19.25;;;12.43;;
46447;SDS011;32145;50.390;30.778;2023-10-13T01:26:34;20.05;;;12.40;;
46447;SDS011;32145;50.390;30.778;2023-10-13T01:29:29;19.65;;;12.48;;
46447;SDS011;32145;50.390;30.778;2023-10-13T01:32:23;19.25;;;13.23;;
46447;SDS011;32145;50.390;30.778;2023-10-13T01:35:20;22.98;;;13.40;;
46447;SDS011;32145;50.390;30.778;2023-10-13T01:38:16;21.58;;;13.00;;
46447;SDS011;32145;50.390;30.778;2023-10-13T01:41:14;19.30;;;12.10;;
46447;SDS011;32145;50.390;30.778;2023-10-13T01:44:10;23.00;;;12.90;;
46447;SDS011;32145;50.390;30.778;2023-10-13T01:47:07;17.15;;;12.75;;
46447;SDS011;32145;50.390;30.778;2023-10-13T01:50:03;20.40;;;12.43;;
46447;SDS011;32145;50.390;30.778;2023-10-13T01:53:01;20.27;;;12.80;;
46447;SDS011;32145;50.390;30.778;2023-10-13T01:55:57;20.63;;;11.82;;
46447;SDS011;32145;50.390;30.778;2023-10-13T01:58:55;22.50;;;12.80;;
46447;SDS011;32145;50.390;30.778;2023-10-13T02:01:51;18.75;;;12.88;;
46447;SDS011;32145;50.390;30.778;2023-10-13T02:04:47;20.35;;;13.75;;
46447;SDS011;32145;50.390;30.778;2023-10-13T02:07:43;22.42;;;13.02;;
46447;SDS011;32145;50.390;30.778;2023-10-13T02:10:39;19.02;;;12.68;;
46447;SDS011;32145;50.390;30.778;2023-10-13T02:13:36;20.75;;;13.02;;
46447;SDS011;32145;50.390;30.778;2023-10-13T02:16:32;24.98;;;14.07;;
46447;SDS011;32145;50.390;30.778;2023-10-13T02:19:26;23.33;;;14.30;;
46447;SDS011;32145;50.390;30.778;2023-10-13T02:22:20;21.80;;;14.57;;
46447;SDS011;32145;50.390;30.778;2023-10-13T02:25:15;24.55;;;16.25;;
46447;SDS011;32145;50.390;30.778;2023-10-13T02:28:11;25.27;;;15.27;;
46447;SDS011;32145;50.390;30.778;2023-10-13T02:31:08;22.65;;;16.08;;
46447;SDS011;32145;50.390;30.778;2023-10-13T02:34:06;23.50;;;16.15;;
46447;SDS011;32145;50.390;30.778;2023-10-13T02:37:02;26.23;;;16.10;;
46447;SDS011;32145;50.390;30.778;2023-10-13T02:39:59;22.73;;;15.27;;
46447;SDS011;32145;50.390;30.778;2023-10-13T02:42:55;24.67;;;15.80;;
46447;SDS011;32145;50.390;30.778;2023-10-13T02:45:52;23.77;;;15.38;;
46447;SDS011;32145;50.390;30.778;2023-10-13T02:48:48;27.65;;;15.73;;
46447;SDS011;32145;50.390;30.778;2023-10-13T02:51:46;22.38;;;14.88;;
46447;SDS011;32145;50.390;30.778;2023-10-13T02:54:42;24.50;;;16.23;;
46447;SDS011;32145;50.390;30.778;2023-10-13T02:57:39;25.13;;;16.10;;
46447;SDS011;32145;50.390;30.778;2023-10-13T03:00:35;23.35;;;16.52;;
46447;SDS011;32145;50.390;30.778;2023-10-13T03:03:31;26.42;;;15.88;;
46447;SDS011;32145;50.390;30.778;2023-10-13T03:06:28;28.10;;;15.85;;
46447;SDS011;32145;50.390;30.778;2023-10-13T03:09:23;25.95;;;16.27;;
46447;SDS011;32145;50.390;30.778;2023-10-13T03:12:18;23.67;;;15.60;;
46447;SDS011;32145;50.390;30.778;2023-10-13T03:15:12;22.40;;;14.60;;
46447;SDS011;32145;50.390;30.778;2023-10-13T03:18:07;24.73;;;15.45;;
46447;SDS011;32145;50.390;30.778;2023-10-13T03:21:01;22.23;;;15.32;;
46447;SDS011;32145;50.390;30.778;2023-10-13T03:23:56;22.23;;;14.73;;
46447;SDS011;32145;50.390;30.778;2023-10-13T03:26:54;21.10;;;14.20;;
46447;SDS011;32145;50.390;30.778;2023-10-13T03:29:50;21.02;;;14.30;;
46447;SDS011;32145;50.390;30.778;2023-10-13T03:32:45;21.30;;;15.00;;
46447;SDS011;32145;50.390;30.778;2023-10-13T03:35:39;20.60;;;13.73;;
46447;SDS011;32145;50.390;30.778;2023-10-13T03:38:34;22.10;;;14.32;;
46447;SDS011;32145;50.390;30.778;2023-10-13T03:41:28;24.58;;;15.00;;
46447;SDS011;32145;50.390;30.778;2023-10-13T03:44:24;21.13;;;14.18;;
46447;SDS011;32145;50.390;30.778;2023-10-13T03:47:18;22.23;;;14.40;;
46447;SDS011;32145;50.390;30.778;2023-10-13T03:50:12;20.73;;;14.20;;
46447;SDS011;32145;50.390;30.778;2023-10-13T03:53:06;21.92;;;13.75;;
46447;SDS011;32145;50.390;30.778;2023-10-13T03:56:04;19.98;;;13.75;;
46447;SDS011;32145;50.390;30.778;2023-10-13T03:59:01;19.60;;;13.05;;
46447;SDS011;32145;50.390;30.778;2023-10-13T04:01:58;20.98;;;12.80;;
46447;SDS011;32145;50.390;30.778;2023-10-13T04:04:54;18.90;;;12.55;;
46447;SDS011;32145;50.390;30.778;2023-10-13T04:07:51;18.35;;;12.50;;
46447;SDS011;32145;50.390;30.778;2023-10-13T04:10:47;17.27;;;12.43;;
46447;SDS011;32145;50.390;30.778;2023-10-13T04:13:43;18.23;;;11.95;;
46447;SDS011;32145;50.390;30.778;2023-10-13T04:16:40;16.60;;;12.15;;
46447;SDS011;32145;50.390;30.778;2023-10-13T04:19:37;14.95;;;11.25;;
46447;SDS011;32145;50.390;30.778;2023-10-13T04:22:33;17.55;;;10.85;;
46447;SDS011;32145;50.390;30.778;2023-10-13T04:25:30;14.07;;;10.52;;
46447;SDS011;32145;50.390;30.778;2023-10-13T04:28:27;14.13;;;10.35;;
46447;SDS011;32145;50.390;30.778;2023-10-13T04:31:23;15.18;;;10.35;;
46447;SDS011;32145;50.390;30.778;2023-10-13T04:34:19;13.65;;;8.93;;
46447;SDS011;32145;50.390;30.778;2023-10-13T04:37:15;12.40;;;9.20;;
46447;SDS011;32145;50.390;30.778;2023-10-13T04:40:09;14.85;;;9.13;;
46447;SDS011;32145;50.390;30.778;2023-10-13T04:43:03;14.77;;;9.50;;
46447;SDS011;32145;50.390;30.778;2023-10-13T04:45:58;16.95;;;9.38;;
46447;SDS011;32145;50.390;30.778;2023-10-13T04:48:55;15.02;;;9.63;;
46447;SDS011;32145;50.390;30.778;2023-10-13T04:51:51;13.57;;;8.15;;
46447;SDS011;32145;50.390;30.778;2023-10-13T04:54:49;15.15;;;9.35;;
46447;SDS011;32145;50.390;30.778;2023-10-13T04:57:45;14.00;;;9.27;;
46447;SDS011;32145;50.390;30.778;2023-10-13T05:00:42;16.25;;;10.40;;
46447;SDS011;32145;50.390;30.778;2023-10-13T05:03:32;17.88;;;10.75;;
46447;SDS011;32145;50.390;30.778;2023-10-13T05:06:27;13.05;;;9.27;;
46447;SDS011;32145;50.390;30.778;2023-10-13T05:09:21;11.80;;;8.10;;
46447;SDS011;32145;50.390;30.778;2023-10-13T05:12:17;15.88;;;8.00;;
46447;SDS011;32145;50.390;30.778;2023-10-13T05:15:11;14.07;;;8.27;;
46447;SDS011;32145;50.390;30.778;2023-10-13T05:18:05;14.13;;;8.68;;
46447;SDS011;32145;50.390;30.778;2023-10-13T05:20:59;13.60;;;8.32;;
46447;SDS011;32145;50.390;30.778;2023-10-13T05:23:54;13.38;;;8.48;;
46447;SDS011;32145;50.390;30.778;2023-10-13T05:26:48;14.00;;;8.65;;
46447;SDS011;32145;50.390;30.778;2023-10-13T05:29:46;13.65;;;8.75;;
46447;SDS011;32145;50.390;30.778;2023-10-13T05:32:43;14.20;;;8.93;;
46447;SDS011;32145;50.390;30.778;2023-10-13T05:35:40;14.93;;;9.35;;
46447;SDS011;32145;50.390;30.778;2023-10-13T05:38:36;15.98;;;9.93;;
46447;SDS011;32145;50.390;30.778;2023-10-13T05:41:32;14.23;;;8.77;;
46447;SDS011;32145;50.390;30.778;2023-10-13T05:44:29;12.90;;;7.68;;
46447;SDS011;32145;50.390;30.778;2023-10-13T05:47:27;11.32;;;7.78;;
46447;SDS011;32145;50.390;30.778;2023-10-13T05:50:23;13.98;;;8.75;;
46447;SDS011;32145;50.390;30.778;2023-10-13T05:53:19;11.02;;;7.07;;
46447;SDS011;32145;50.390;30.778;2023-10-13T05:56:17;12.48;;;7.50;;
46447;SDS011;32145;50.390;30.778;2023-10-13T05:59:12;9.80;;;6.88;;
46447;SDS011;32145;50.390;30.778;2023-10-13T06:02:08;12.20;;;7.60;;
46447;SDS011;32145;50.390;30.778;2023-10-13T06:05:06;11.52;;;7.05;;
46447;SDS011;32145;50.390;30.778;2023-10-13T06:11:03;11.05;;;7.25;;
46447;SDS011;32145;50.390;30.778;2023-10-13T06:13:59;13.77;;;7.47;;
46447;SDS011;32145;50.390;30.778;2023-10-13T06:16:56;11.95;;;7.30;;
46447;SDS011;32145;50.390;30.778;2023-10-13T06:19:52;12.07;;;6.85;;
46447;SDS011;32145;50.390;30.778;2023-10-13T06:22:50;12.23;;;6.63;;
46447;SDS011;32145;50.390;30.778;2023-10-13T06:25:50;9.43;;;6.85;;
46447;SDS011;32145;50.390;30.778;2023-10-13T06:28:46;11.35;;;6.25;;
46447;SDS011;32145;50.390;30.778;2023-10-13T06:31:42;13.52;;;6.47;;
46447;SDS011;32145;50.390;30.778;2023-10-13T06:34:39;11.35;;;6.30;;
46447;SDS011;32145;50.390;30.778;2023-10-13T06:37:35;10.68;;;6.70;;
46447;SDS011;32145;50.390;30.778;2023-10-13T06:40:33;11.45;;;6.70;;
46447;SDS011;32145;50.390;30.778;2023-10-13T06:43:29;8.45;;;6.13;;
46447;SDS011;32145;50.390;30.778;2023-10-13T06:46:26;11.02;;;6.30;;
46447;SDS011;32145;50.390;30.778;2023-10-13T06:49:23;9.93;;;6.00;;
46447;SDS011;32145;50.390;30.778;2023-10-13T06:52:19;9.82;;;6.38;;
46447;SDS011;32145;50.390;30.778;2023-10-13T06:55:15;11.93;;;6.07;;
46447;SDS011;32145;50.390;30.778;2023-10-13T06:58:14;10.07;;;5.60;;
46447;SDS011;32145;50.390;30.778;2023-10-13T07:01:10;10.05;;;6.18;;
46447;SDS011;32145;50.390;30.778;2023-10-13T07:04:06;10.00;;;5.97;;
46447;SDS011;32145;50.390;30.778;2023-10-13T07:07:03;12.25;;;5.40;;
46447;SDS011;32145;50.390;30.778;2023-10-13T07:09:58;8.02;;;5.45;;
46447;SDS011;32145;50.390;30.778;2023-10-13T07:12:52;11.07;;;5.70;;
46447;SDS011;32145;50.390;30.778;2023-10-13T07:15:48;10.52;;;5.45;;
46447;SDS011;32145;50.390;30.778;2023-10-13T07:18:42;8.68;;;5.68;;
46447;SDS011;32145;50.390;30.778;2023-10-13T07:21:36;10.20;;;5.78;;
46447;SDS011;32145;50.390;30.778;2023-10-13T07:24:31;10.70;;;5.90;;
46447;SDS011;32145;50.390;30.778;2023-10-13T07:27:25;7.47;;;5.07;;
46447;SDS011;32145;50.390;30.778;2023-10-13T07:30:19;8.68;;;5.45;;
46447;SDS011;32145;50.390;30.778;2023-10-13T07:33:15;9.85;;;5.82;;
46447;SDS011;32145;50.390;30.778;2023-10-13T07:36:09;9.77;;;6.53;;
46447;SDS011;32145;50.390;30.778;2023-10-13T07:39:04;12.30;;;6.15;;
46447;SDS011;32145;50.390;30.778;2023-10-13T07:41:58;9.90;;;5.60;;
46447;SDS011;32145;50.390;30.778;2023-10-13T07:44:53;9.45;;;6.22;;
46447;SDS011;32145;50.390;30.778;2023-10-13T07:47:47;9.73;;;5.88;;
46447;SDS011;32145;50.390;30.778;2023-10-13T07:50:43;8.00;;;4.97;;
46447;SDS011;32145;50.390;30.778;2023-10-13T07:53:39;12.60;;;4.75;;
46447;SDS011;32145;50.390;30.778;2023-10-13T07:56:33;10.18;;;5.22;;
46447;SDS011;32145;50.390;30.778;2023-10-13T07:59:28;8.48;;;4.60;;
46447;SDS011;32145;50.390;30.778;2023-10-13T08:02:22;8.55;;;4.80;;
46447;SDS011;32145;50.390;30.778;2023-10-13T08:05:16;9.15;;;4.60;;
46447;SDS011;32145;50.390;30.778;2023-10-13T08:08:12;10.00;;;4.93;;
46447;SDS011;32145;50.390;30.778;2023-10-13T08:11:07;12.10;;;4.88;;
46447;SDS011;32145;50.390;30.778;2023-10-13T08:14:03;9.18;;;4.85;;
46447;SDS011;32145;50.390;30.778;2023-10-13T08:17:00;11.32;;;4.75;;
46447;SDS011;32145;50.390;30.778;2023-10-13T08:19:57;8.48;;;3.47;;
46447;SDS011;32145;50.390;30.778;2023-10-13T08:22:53;6.18;;;3.20;;
46447;SDS011;32145;50.390;30.778;2023-10-13T08:25:51;7.25;;;3.35;;
46447;SDS011;32145;50.390;30.778;2023-10-13T08:28:47;5.80;;;3.53;;
46447;SDS011;32145;50.390;30.778;2023-10-13T08:31:43;6.40;;;3.15;;
46447;SDS011;32145;50.390;30.778;2023-10-13T08:34:40;9.90;;;3.40;;
46447;SDS011;32145;50.390;30.778;2023-10-13T08:37:36;7.15;;;3.30;;
46447;SDS011;32145;50.390;30.778;2023-10-13T08:40:32;7.22;;;3.60;;
46447;SDS011;32145;50.390;30.778;2023-10-13T08:43:32;10.50;;;3.60;;
46447;SDS011;32145;50.390;30.778;2023-10-13T08:49:26;6.80;;;3.58;;
46447;SDS011;32145;50.390;30.778;2023-10-13T08:52:21;7.10;;;3.40;;
46447;SDS011;32145;50.390;30.778;2023-10-13T08:55:16;7.80;;;3.95;;
46447;SDS011;32145;50.390;30.778;2023-10-13T08:58:11;6.78;;;3.45;;
46447;SDS011;32145;50.390;30.778;2023-10-13T09:01:07;6.35;;;3.30;;
46447;SDS011;32145;50.390;30.778;2023-10-13T09:04:02;6.60;;;3.22;;
46447;SDS011;32145;50.390;30.778;2023-10-13T09:06:58;8.55;;;3.45;;
46447;SDS011;32145;50.390;30.778;2023-10-13T09:09:54;8.15;;;3.38;;
46447;SDS011;32145;50.390;30.778;2023-10-13T09:12:53;11.02;;;3.92;;
46447;SDS011;32145;50.390;30.778;2023-10-13T09:15:50;5.68;;;3.50;;
46447;SDS011;32145;50.390;30.778;2023-10-13T09:18:46;6.70;;;3.38;;
46447;SDS011;32145;50.390;30.778;2023-10-13T09:21:42;8.32;;;3.28;;
46447;SDS011;32145;50.390;30.778;2023-10-13T09:24:38;7.03;;;3.78;;
46447;SDS011;32145;50.390;30.778;2023-10-13T09:27:34;7.07;;;3.65;;
46447;SDS011;32145;50.390;30.778;2023-10-13T09:30:31;5.22;;;3.40;;
46447;SDS011;32145;50.390;30.778;2023-10-13T09:33:28;4.95;;;3.28;;
46447;SDS011;32145;50.390;30.778;2023-10-13T09:36:26;7.53;;;3.53;;
46447;SDS011;32145;50.390;30.778;2023-10-13T09:39:24;6.30;;;3.15;;
46447;SDS011;32145;50.390;30.778;2023-10-13T09:42:21;5.93;;;3.05;;
46447;SDS011;32145;50.390;30.778;2023-10-13T09:45:17;10.10;;;3.15;;
46447;SDS011;32145;50.390;30.778;2023-10-13T09:48:14;6.18;;;3.10;;
46447;SDS011;32145;50.390;30.778;2023-10-13T09:51:11;5.85;;;2.80;;
46447;SDS011;32145;50.390;30.778;2023-10-13T09:54:11;7.65;;;3.03;;
46447;SDS011;32145;50.390;30.778;2023-10-13T09:57:14;9.82;;;2.88;;
46447;SDS011;32145;50.390;30.778;2023-10-13T10:00:15;7.07;;;2.97;;
46447;SDS011;32145;50.390;30.778;2023-10-13T10:03:08;7.63;;;3.63;;
46447;SDS011;32145;50.390;30.778;2023-10-13T10:06:02;8.20;;;3.33;;
46447;SDS011;32145;50.390;30.778;2023-10-13T10:09:06;5.63;;;2.67;;
46447;SDS011;32145;50.390;30.778;2023-10-13T10:12:16;5.97;;;2.70;;
46447;SDS011;32145;50.390;30.778;2023-10-13T10:15:22;5.05;;;2.20;;
46447;SDS011;32145;50.390;30.778;2023-10-13T10:18:20;5.82;;;2.42;;
46447;SDS011;32145;50.390;30.778;2023-10-13T10:21:15;6.82;;;2.53;;
46447;SDS011;32145;50.390;30.778;2023-10-13T10:24:15;5.43;;;2.58;;
46447;SDS011;32145;50.390;30.778;2023-10-13T10:27:12;7.82;;;3.17;;
46447;SDS011;32145;50.390;30.778;2023-10-13T10:30:10;5.05;;;3.08;;
46447;SDS011;32145;50.390;30.778;2023-10-13T10:33:05;6.00;;;3.15;;
46447;SDS011;32145;50.390;30.778;2023-10-13T10:36:00;8.70;;;3.53;;
46447;SDS011;32145;50.390;30.778;2023-10-13T10:38:55;5.00;;;3.10;;
46447;SDS011;32145;50.390;30.778;2023-10-13T10:41:50;4.68;;;2.90;;
46447;SDS011;32145;50.390;30.778;2023-10-13T10:44:45;7.10;;;3.20;;
46447;SDS011;32145;50.390;30.778;2023-10-13T10:47:48;8.55;;;3.10;;
46447;SDS011;32145;50.390;30.778;2023-10-13T10:50:42;6.50;;;3.03;;
46447;SDS011;32145;50.390;30.778;2023-10-13T10:53:36;10.25;;;3.00;;
46447;SDS011;32145;50.390;30.778;2023-10-13T10:56:33;6.72;;;3.05;;
46447;SDS011;32145;50.390;30.778;2023-10-13T10:59:33;7.10;;;3.30;;
46447;SDS011;32145;50.390;30.778;2023-10-13T11:02:30;6.45;;;3.00;;
46447;SDS011;32145;50.390;30.778;2023-10-13T11:05:27;5.93;;;2.90;;
46447;SDS011;32145;50.390;30.778;2023-10-13T11:08:24;6.50;;;2.50;;
46447;SDS011;32145;50.390;30.778;2023-10-13T11:11:30;5.20;;;2.53;;
46447;SDS011;32145;50.390;30.778;2023-10-13T11:14:27;5.95;;;2.85;;
46447;SDS011;32145;50.390;30.778;2023-10-13T11:17:24;8.05;;;3.25;;
46447;SDS011;32145;50.390;30.778;2023-10-13T11:20:20;6.05;;;3.25;;
46447;SDS011;32145;50.390;30.778;2023-10-13T11:23:18;7.75;;;2.60;;
46447;SDS011;32145;50.390;30.778;2023-10-13T11:26:14;6.20;;;2.67;;
46447;SDS011;32145;50.390;30.778;2023-10-13T11:29:11;6.57;;;3.03;;
46447;SDS011;32145;50.390;30.778;2023-10-13T11:32:07;7.35;;;2.78;;
46447;SDS011;32145;50.390;30.778;2023-10-13T11:35:04;6.72;;;2.83;;
46447;SDS011;32145;50.390;30.778;2023-10-13T11:38:00;6.78;;;2.80;;
46447;SDS011;32145;50.390;30.778;2023-10-13T11:40:58;6.03;;;3.00;;
46447;SDS011;32145;50.390;30.778;2023-10-13T11:43:56;9.27;;;3.00;;
46447;SDS011;32145;50.390;30.778;2023-10-13T11:46:52;5.93;;;2.70;;
46447;SDS011;32145;50.390;30.778;2023-10-13T11:49:49;5.90;;;3.10;;
46447;SDS011;32145;50.390;30.778;2023-10-13T11:52:46;6.03;;;3.15;;
46447;SDS011;32145;50.390;30.778;2023-10-13T11:55:42;5.30;;;2.60;;
46447;SDS011;32145;50.390;30.778;2023-10-13T11:58:38;4.30;;;2.40;;
46447;SDS011;32145;50.390;30.778;2023-10-13T12:01:32;5.95;;;2.67;;
46447;SDS011;32145;50.390;30.778;2023-10-13T12:04:27;4.82;;;2.67;;
46447;SDS011;32145;50.390;30.778;2023-10-13T12:07:21;6.30;;;2.90;;
46447;SDS011;32145;50.390;30.778;2023-10-13T12:10:15;5.15;;;2.10;;
46447;SDS011;32145;50.390;30.778;2023-10-13T12:13:10;6.68;;;2.80;;
46447;SDS011;32145;50.390;30.778;2023-10-13T12:16:05;5.95;;;2.50;;
46447;SDS011;32145;50.390;30.778;2023-10-13T12:19:00;4.90;;;2.42;;
46447;SDS011;32145;50.390;30.778;2023-10-13T12:21:54;5.85;;;2.60;;
46447;SDS011;32145;50.390;30.778;2023-10-13T12:24:49;5.88;;;2.55;;
46447;SDS011;32145;50.390;30.778;2023-10-13T12:27:45;7.00;;;2.40;;
46447;SDS011;32145;50.390;30.778;2023-10-13T12:30:41;4.53;;;2.20;;
46447;SDS011;32145;50.390;30.778;2023-10-13T12:33:39;5.75;;;2.53;;
46447;SDS011;32145;50.390;30.778;2023-10-13T12:36:35;4.75;;;2.50;;
46447;SDS011;32145;50.390;30.778;2023-10-13T12:39:31;8.05;;;3.05;;
46447;SDS011;32145;50.390;30.778;2023-10-13T12:42:28;5.63;;;2.83;;
46447;SDS011;32145;50.390;30.778;2023-10-13T12:45:24;6.78;;;2.70;;
46447;SDS011;32145;50.390;30.778;2023-10-13T12:48:20;5.93;;;2.25;;
46447;SDS011;32145;50.390;30.778;2023-10-13T12:51:18;5.93;;;2.40;;
46447;SDS011;32145;50.390;30.778;2023-10-13T12:54:15;4.57;;;2.40;;
46447;SDS011;32145;50.390;30.778;2023-10-13T12:57:11;7.90;;;2.60;;
46447;SDS011;32145;50.390;30.778;2023-10-13T13:00:06;5.82;;;2.67;;
46447;SDS011;32145;50.390;30.778;2023-10-13T13:03:01;7.22;;;2.50;;
46447;SDS011;32145;50.390;30.778;2023-10-13T13:05:56;5.50;;;2.50;;
46447;SDS011;32145;50.390;30.778;2023-10-13T13:08:52;3.35;;;1.88;;
46447;SDS011;32145;50.390;30.778;2023-10-13T13:11:48;7.30;;;2.90;;
46447;SDS011;32145;50.390;30.778;2023-10-13T13:14:45;4.93;;;2.45;;
46447;SDS011;32145;50.390;30.778;2023-10-13T13:17:41;7.05;;;2.35;;
46447;SDS011;32145;50.390;30.778;2023-10-13T13:20:37;5.38;;;2.30;;
46447;SDS011;32145;50.390;30.778;2023-10-13T13:23:34;6.38;;;2.40;;
46447;SDS011;32145;50.390;30.778;2023-10-13T13:26:31;6.10;;;2.60;;
46447;SDS011;32145;50.390;30.778;2023-10-13T13:29:28;6.18;;;2.42;;
46447;SDS011;32145;50.390;30.778;2023-10-13T13:32:24;5.85;;;2.70;;
46447;SDS011;32145;50.390;30.778;2023-10-13T13:35:21;6.35;;;2.42;;
46447;SDS011;32145;50.390;30.778;2023-10-13T13:38:17;5.18;;;2.40;;
46447;SDS011;32145;50.390;30.778;2023-10-13T13:41:13;4.88;;;2.20;;
46447;SDS011;32145;50.390;30.778;2023-10-13T13:44:11;6.07;;;2.10;;
46447;SDS011;32145;50.390;30.778;2023-10-13T13:47:07;6.10;;;2.65;;
46447;SDS011;32145;50.390;30.778;2023-10-13T13:50:04;4.93;;;2.28;;
46447;SDS011;32145;50.390;30.778;2023-10-13T13:52:58;4.10;;;2.35;;
46447;SDS011;32145;50.390;30.778;2023-10-13T13:55:53;5.13;;;2.35;;
46447;SDS011;32145;50.390;30.778;2023-10-13T13:58:47;5.93;;;2.80;;
46447;SDS011;32145;50.390;30.778;2023-10-13T14:01:47;7.72;;;3.05;;
46447;SDS011;32145;50.390;30.778;2023-10-13T14:04:42;7.07;;;2.80;;
46447;SDS011;32145;50.390;30.778;2023-10-13T14:07:36;9.98;;;3.70;;
46447;SDS011;32145;50.390;30.778;2023-10-13T14:10:30;7.15;;;3.03;;
46447;SDS011;32145;50.390;30.778;2023-10-13T14:13:25;7.40;;;2.72;;
46447;SDS011;32145;50.390;30.778;2023-10-13T14:16:19;6.28;;;3.17;;
46447;SDS011;32145;50.390;30.778;2023-10-13T14:19:15;7.88;;;3.45;;
46447;SDS011;32145;50.390;30.778;2023-10-13T14:22:10;7.63;;;3.42;;
46447;SDS011;32145;50.390;30.778;2023-10-13T14:25:04;7.43;;;3.15;;
46447;SDS011;32145;50.390;30.778;2023-10-13T14:27:59;6.95;;;2.58;;
46447;SDS011;32145;50.390;30.778;2023-10-13T14:30:53;8.10;;;3.00;;
46447;SDS011;32145;50.390;30.778;2023-10-13T14:33:47;9.73;;;3.63;;
46447;SDS011;32145;50.390;30.778;2023-10-13T14:36:43;10.55;;;4.05;;
46447;SDS011;32145;50.390;30.778;2023-10-13T14:39:39;10.10;;;4.03;;
46447;SDS011;32145;50.390;30.778;2023-10-13T14:42:35;8.20;;;4.28;;
46447;SDS011;32145;50.390;30.778;2023-10-13T14:45:32;9.73;;;4.72;;
46447;SDS011;32145;50.390;30.778;2023-10-13T14:48:31;18.20;;;7.30;;
46447;SDS011;32145;50.390;30.778;2023-10-13T14:51:27;20.98;;;8.90;;
46447;SDS011;32145;50.390;30.778;2023-10-13T14:54:25;55.42;;;28.05;;
46447;SDS011;32145;50.390;30.778;2023-10-13T14:57:19;83.43;;;39.08;;
46447;SDS011;32145;50.390;30.778;2023-10-13T15:00:14;67.95;;;31.48;;
46447;SDS011;32145;50.390;30.778;2023-10-13T15:03:10;57.33;;;28.13;;
46447;SDS011;32145;50.390;30.778;2023-10-13T15:06:06;50.22;;;23.23;;
46447;SDS011;32145;50.390;30.778;2023-10-13T15:09:03;40.50;;;20.90;;
46447;SDS011;32145;50.390;30.778;2023-10-13T15:12:00;43.60;;;22.20;;
46447;SDS011;32145;50.390;30.778;2023-10-13T15:14:57;40.38;;;20.05;;
46447;SDS011;32145;50.390;30.778;2023-10-13T15:17:53;44.67;;;21.50;;
46447;SDS011;32145;50.390;30.778;2023-10-13T15:20:49;27.30;;;14.82;;
46447;SDS011;32145;50.390;30.778;2023-10-13T15:23:46;29.52;;;14.68;;
46447;SDS011;32145;50.390;30.778;2023-10-13T15:26:40;27.17;;;14.55;;
46447;SDS011;32145;50.390;30.778;2023-10-13T15:29:36;23.50;;;11.13;;
46447;SDS011;32145;50.390;30.778;2023-10-13T15:32:30;14.00;;;6.85;;
46447;SDS011;32145;50.390;30.778;2023-10-13T15:35:25;12.73;;;6.50;;
46447;SDS011;32145;50.390;30.778;2023-10-13T15:38:19;25.30;;;14.52;;
46447;SDS011;32145;50.390;30.778;2023-10-13T15:41:13;199.32;;;119.90;;
46447;SDS011;32145;50.390;30.778;2023-10-13T15:44:16;201.93;;;117.03;;
46447;SDS011;32145;50.390;30.778;2023-10-13T15:47:13;169.27;;;98.20;;
46447;SDS011;32145;50.390;30.778;2023-10-13T15:50:10;131.68;;;76.35;;
46447;SDS011;32145;50.390;30.778;2023-10-13T15:53:06;118.85;;;71.20;;
46447;SDS011;32145;50.390;30.778;2023-10-13T15:56:02;82.53;;;48.10;;
46447;SDS011;32145;50.390;30.778;2023-10-13T15:58:57;87.70;;;47.33;;
46447;SDS011;32145;50.390;30.778;2023-10-13T16:01:54;90.05;;;50.70;;
46447;SDS011;32145;50.390;30.778;2023-10-13T16:04:50;86.38;;;47.63;;
46447;SDS011;32145;50.390;30.778;2023-10-13T16:07:44;67.90;;;37.65;;
46447;SDS011;32145;50.390;30.778;2023-10-13T16:10:39;54.30;;;29.80;;
46447;SDS011;32145;50.390;30.778;2023-10-13T16:13:34;61.75;;;33.25;;
46447;SDS011;32145;50.390;30.778;2023-10-13T16:16:28;70.00;;;37.13;;
46447;SDS011;32145;50.390;30.778;2023-10-13T16:19:23;62.75;;;34.47;;
46447;SDS011;32145;50.390;30.778;2023-10-13T16:22:18;54.05;;;28.08;;
46447;SDS011;32145;50.390;30.778;2023-10-13T16:25:13;77.13;;;39.28;;
46447;SDS011;32145;50.390;30.778;2023-10-13T16:28:08;90.70;;;47.17;;
46447;SDS011;32145;50.390;30.778;2023-10-13T16:31:02;75.53;;;38.25;;
46447;SDS011;32145;50.390;30.778;2023-10-13T16:33:57;74.43;;;37.97;;
46447;SDS011;32145;50.390;30.778;2023-10-13T16:36:51;75.82;;;40.05;;
46447;SDS011;32145;50.390;30.778;2023-10-13T16:39:47;75.03;;;40.17;;
46447;SDS011;32145;50.390;30.778;2023-10-13T16:42:41;64.80;;;35.20;;
46447;SDS011;32145;50.390;30.778;2023-10-13T16:45:36;50.67;;;28.38;;
46447;SDS011;32145;50.390;30.778;2023-10-13T16:48:30;44.60;;;23.98;;
46447;SDS011;32145;50.390;30.778;2023-10-13T16:51:25;38.58;;;23.50;;
46447;SDS011;32145;50.390;30.778;2023-10-13T16:54:19;38.83;;;23.90;;
46447;SDS011;32145;50.390;30.778;2023-10-13T16:57:15;42.28;;;24.80;;
46447;SDS011;32145;50.390;30.778;2023-10-13T17:00:10;41.33;;;22.67;;
46447;SDS011;32145;50.390;30.778;2023-10-13T17:03:05;35.42;;;20.77;;
46447;SDS011;32145;50.390;30.778;2023-10-13T17:06:01;34.80;;;21.42;;
46447;SDS011;32145;50.390;30.778;2023-10-13T17:08:57;33.80;;;20.70;;
46447;SDS011;32145;50.390;30.778;2023-10-13T17:11:52;34.28;;;20.80;;
46447;SDS011;32145;50.390;30.778;2023-10-13T17:14:47;32.53;;;20.75;;